createdAt,value
2023-01-29T00:01:15.728Z,69.55
2023-01-29T00:06:17.911Z,70.23
2023-01-29T00:11:20.592Z,69.66
2023-01-29T00:16:24.781Z,69.64
2023-01-29T00:21:26.562Z,68.59
2023-01-29T00:26:28.664Z,69.05
2023-01-29T00:31:31.058Z,69.01
2023-01-29T00:36:32.883Z,68.90
2023-01-29T00:41:54.161Z,68.78
2023-01-29T00:46:56.048Z,68.75
2023-01-29T00:52:30.794Z,67.85
2023-01-29T00:57:34.857Z,67.37
2023-01-29T01:02:55.124Z,65.71
2023-01-29T01:07:58.319Z,66.12
2023-01-29T01:13:06.572Z,67.83
2023-01-29T01:18:08.288Z,66.83
2023-01-29T01:23:10.043Z,66.43
2023-01-29T01:28:12.835Z,65.72
2023-01-29T01:33:14.585Z,63.75
2023-01-29T01:38:17.155Z,63.82
2023-01-29T01:43:18.840Z,62.11
2023-01-29T01:48:23.724Z,60.43
2023-01-29T01:53:34.589Z,60.31
2023-01-29T01:58:42.635Z,60.62
2023-01-29T02:04:28.899Z,62.85
2023-01-29T02:09:36.503Z,60.12
2023-01-29T02:14:41.299Z,62.92
2023-01-29T02:20:12.024Z,61.10
2023-01-29T02:25:23.380Z,60.00
2023-01-29T02:30:53.833Z,59.62
2023-01-29T02:36:24.583Z,62.14
2023-01-29T02:41:32.157Z,59.38
2023-01-29T02:46:53.475Z,62.58
2023-01-29T02:52:07.493Z,61.19
2023-01-29T02:57:22.727Z,60.52
2023-01-29T03:02:38.151Z,60.50
2023-01-29T03:07:46.460Z,60.31
2023-01-29T03:13:05.109Z,59.94
2023-01-29T03:18:10.567Z,63.52
2023-01-29T03:23:23.835Z,59.91
2023-01-29T03:28:46.889Z,62.32
2023-01-29T03:33:52.096Z,60.47
2023-01-29T03:38:53.961Z,59.51
2023-01-29T03:44:17.664Z,63.01
2023-01-29T03:49:28.480Z,58.85
2023-01-29T03:54:46.964Z,62.42
2023-01-29T04:00:07.906Z,60.03
2023-01-29T04:05:23.065Z,62.30
2023-01-29T04:10:44.315Z,60.56
2023-01-29T04:15:59.938Z,57.34
2023-01-29T04:21:32.082Z,62.66
2023-01-29T04:26:52.932Z,61.09
2023-01-29T04:32:13.704Z,58.92
2023-01-29T04:37:20.727Z,63.40
2023-01-29T04:42:49.476Z,60.33
2023-01-29T04:48:18.613Z,61.62
2023-01-29T04:53:25.421Z,61.11
2023-01-29T04:58:44.818Z,60.16
2023-01-29T05:03:55.340Z,63.08
2023-01-29T05:08:57.902Z,59.96
2023-01-29T05:14:04.410Z,62.61
2023-01-29T05:19:06.081Z,60.15
2023-01-29T05:24:21.335Z,62.70
2023-01-29T05:29:24.117Z,60.39
2023-01-29T05:34:26.320Z,60.83
2023-01-29T05:39:28.034Z,62.53
2023-01-29T05:44:29.761Z,59.12
2023-01-29T05:49:31.394Z,61.36
2023-01-29T05:54:32.997Z,62.50
2023-01-29T05:59:34.767Z,58.72
2023-01-29T06:04:36.511Z,62.18
2023-01-29T06:09:38.317Z,62.43
2023-01-29T06:14:40.003Z,58.03
2023-01-29T06:19:41.751Z,62.52
2023-01-29T06:24:43.830Z,61.69
2023-01-29T06:29:45.679Z,60.12
2023-01-29T06:34:49.604Z,65.36
2023-01-29T06:39:51.808Z,62.04
2023-01-29T06:44:56.859Z,63.41
2023-01-29T06:49:58.585Z,63.98
2023-01-29T06:55:00.234Z,65.66
2023-01-29T07:00:02.017Z,66.08
2023-01-29T07:05:04.061Z,64.03
2023-01-29T07:10:06.556Z,63.99
2023-01-29T07:15:08.839Z,63.81
2023-01-29T07:20:11.389Z,61.82
2023-01-29T07:25:14.604Z,61.54
2023-01-29T07:30:17.688Z,65.11
2023-01-29T07:35:19.706Z,64.17
2023-01-29T07:40:21.564Z,62.45
2023-01-29T07:45:23.278Z,62.40
2023-01-29T07:50:26.625Z,61.24
2023-01-29T07:55:28.513Z,61.79
2023-01-29T08:00:31.606Z,61.04
2023-01-29T08:05:34.042Z,60.80
2023-01-29T08:10:36.748Z,60.48
2023-01-29T08:15:39.353Z,61.21
2023-01-29T08:20:41.369Z,60.43
2023-01-29T08:25:43.426Z,60.24
2023-01-29T08:30:45.317Z,61.38
2023-01-29T08:35:51.140Z,61.82
2023-01-29T08:40:52.821Z,62.30
2023-01-29T08:45:54.468Z,61.61
2023-01-29T08:51:01.316Z,61.82
2023-01-29T08:56:03.086Z,62.46
2023-01-29T09:01:09.938Z,61.91
2023-01-29T09:06:13.675Z,61.02
2023-01-29T09:11:15.603Z,59.22
2023-01-29T09:16:17.535Z,60.45
2023-01-29T09:21:19.917Z,61.63
2023-01-29T09:26:21.681Z,59.12
2023-01-29T09:31:23.838Z,62.40
2023-01-29T09:36:25.624Z,58.83
2023-01-29T09:41:53.081Z,59.82
2023-01-29T09:46:56.563Z,61.94
2023-01-29T09:52:05.319Z,58.57
2023-01-29T09:57:15.253Z,60.51
2023-01-29T10:02:43.015Z,62.12
2023-01-29T10:08:21.032Z,58.33
2023-01-29T10:13:46.378Z,60.56
2023-01-29T10:19:19.258Z,60.08
2023-01-29T10:24:34.059Z,59.10
2023-01-29T10:29:35.932Z,60.33
2023-01-29T10:34:56.663Z,61.97
2023-01-29T10:40:00.776Z,59.30
2023-01-29T10:45:22.780Z,57.83
2023-01-29T10:50:47.414Z,55.57
2023-01-29T10:56:22.359Z,57.62
2023-01-29T11:01:26.732Z,58.48
2023-01-29T11:06:31.463Z,57.32
2023-01-29T11:12:04.571Z,59.08
2023-01-29T11:17:06.274Z,58.78
2023-01-29T11:22:34.065Z,59.02
2023-01-29T11:27:46.444Z,58.02
2023-01-29T11:33:07.439Z,58.10
2023-01-29T11:38:29.585Z,55.52
2023-01-29T11:43:34.300Z,55.52
2023-01-29T11:48:52.250Z,56.83
2023-01-29T11:54:01.831Z,55.73
2023-01-29T11:59:05.240Z,54.35
2023-01-29T12:04:21.736Z,55.44
2023-01-29T12:09:29.581Z,54.00
2023-01-29T12:14:34.395Z,52.99
2023-01-29T12:19:49.004Z,52.93
2023-01-29T12:25:01.971Z,53.33
2023-01-29T12:30:27.274Z,52.31
2023-01-29T12:35:38.232Z,53.40
2023-01-29T12:40:45.160Z,53.20
2023-01-29T12:45:52.295Z,52.82
2023-01-29T12:51:08.314Z,53.87
2023-01-29T12:56:16.478Z,54.89
2023-01-29T13:01:28.782Z,55.49
2023-01-29T13:06:43.655Z,55.67
2023-01-29T13:12:07.251Z,55.70
2023-01-29T13:17:33.073Z,57.19
2023-01-29T13:22:39.516Z,56.83
2023-01-29T13:27:43.399Z,57.12
2023-01-29T13:32:52.683Z,57.43
2023-01-29T13:37:55.500Z,56.20
2023-01-29T13:43:00.415Z,56.06
2023-01-29T13:48:21.644Z,56.15
2023-01-29T13:53:27.148Z,57.05
2023-01-29T13:58:31.744Z,57.73
2023-01-29T14:04:03.418Z,56.92
2023-01-29T14:09:24.906Z,57.15
2023-01-29T14:14:48.574Z,57.76
2023-01-29T14:20:12.032Z,57.89
2023-01-29T14:25:19.521Z,57.86
2023-01-29T14:30:24.083Z,57.92
2023-01-29T14:35:30.485Z,58.36
2023-01-29T14:40:33.095Z,58.42
2023-01-29T14:45:42.040Z,58.89
2023-01-29T14:50:48.713Z,59.51
2023-01-29T14:56:01.673Z,59.89
2023-01-29T15:01:07.637Z,60.30
2023-01-29T15:06:16.240Z,60.67
2023-01-29T15:11:36.405Z,61.53
2023-01-29T15:17:29.751Z,62.04
2023-01-29T15:22:32.942Z,62.28
2023-01-29T15:27:35.195Z,59.19
2023-01-29T15:32:41.194Z,57.87
2023-01-29T15:37:43.745Z,60.16
2023-01-29T15:42:48.701Z,61.40
2023-01-29T15:47:51.662Z,62.33
2023-01-29T15:52:55.181Z,60.32
2023-01-29T15:57:57.690Z,57.46
2023-01-29T16:03:04.182Z,59.83
2023-01-29T16:08:07.695Z,61.66
2023-01-29T16:13:20.768Z,62.36
2023-01-29T16:18:36.299Z,60.17
2023-01-29T16:23:49.009Z,54.76
2023-01-29T16:28:51.343Z,58.11
2023-01-29T16:33:53.588Z,60.13
2023-01-29T16:39:02.542Z,61.49
2023-01-29T16:44:24.167Z,62.53
2023-01-29T16:49:26.141Z,57.86
2023-01-29T16:54:27.827Z,57.27
2023-01-29T16:59:35.532Z,59.41
2023-01-29T17:04:41.880Z,60.73
2023-01-29T17:09:43.633Z,61.43
2023-01-29T17:14:57.304Z,62.07
2023-01-29T17:20:10.804Z,61.83
2023-01-29T17:25:18.650Z,57.31
2023-01-29T17:30:29.973Z,59.11
2023-01-29T17:35:31.684Z,60.83
2023-01-29T17:40:42.228Z,62.21
2023-01-29T17:45:44.055Z,60.80
2023-01-29T17:50:49.230Z,56.64
2023-01-29T17:55:51.631Z,59.52
2023-01-29T18:00:53.996Z,61.18
2023-01-29T18:05:55.868Z,61.41
2023-01-29T18:10:57.845Z,57.33
2023-01-29T18:15:59.744Z,59.84
2023-01-29T18:21:01.602Z,62.09
2023-01-29T18:26:03.688Z,60.23
2023-01-29T18:31:05.872Z,58.00
2023-01-29T18:36:08.534Z,61.26
2023-01-29T18:41:11.260Z,62.34
2023-01-29T18:46:13.282Z,56.95
2023-01-29T18:51:15.291Z,59.43
2023-01-29T18:56:18.905Z,62.45
2023-01-29T19:01:20.959Z,58.99
2023-01-29T19:06:22.803Z,60.17
2023-01-29T19:11:25.969Z,62.59
2023-01-29T19:16:27.878Z,59.01
2023-01-29T19:21:30.685Z,61.03
2023-01-29T19:26:34.200Z,62.19
2023-01-29T19:31:36.756Z,58.88
2023-01-29T19:36:38.770Z,62.73
2023-01-29T19:41:41.985Z,61.12
2023-01-29T19:46:43.931Z,60.66
2023-01-29T19:51:45.659Z,62.63
2023-01-29T19:56:47.508Z,57.98
2023-01-29T20:01:49.522Z,61.11
2023-01-29T20:06:51.345Z,62.14
2023-01-29T20:11:53.158Z,58.10
2023-01-29T20:16:55.108Z,61.65
2023-01-29T20:21:56.889Z,61.76
2023-01-29T20:26:58.956Z,57.84
2023-01-29T20:32:02.271Z,62.24
2023-01-29T20:37:04.151Z,61.74
2023-01-29T20:42:06.085Z,57.98
2023-01-29T20:47:08.694Z,62.37
2023-01-29T20:52:11.419Z,60.49
2023-01-29T20:57:13.516Z,58.68
2023-01-29T21:02:15.312Z,62.83
2023-01-29T21:07:18.203Z,60.90
2023-01-29T21:12:20.003Z,59.35
2023-01-29T21:17:21.719Z,62.87
2023-01-29T21:22:24.165Z,59.99
2023-01-29T21:27:26.023Z,59.71
2023-01-29T21:32:30.681Z,62.72
2023-01-29T21:37:36.925Z,59.31
2023-01-29T21:42:57.448Z,59.05
2023-01-29T21:47:59.135Z,63.13
2023-01-29T21:53:01.001Z,59.24
2023-01-29T21:58:02.731Z,60.40
2023-01-29T22:03:05.327Z,62.65
2023-01-29T22:08:07.106Z,59.08
2023-01-29T22:13:13.649Z,61.90
2023-01-29T22:18:15.638Z,62.03
2023-01-29T22:23:17.323Z,58.40
2023-01-29T22:28:19.266Z,62.38
2023-01-29T22:33:20.964Z,60.52
2023-01-29T22:38:23.955Z,59.09
2023-01-29T22:43:29.388Z,62.81
2023-01-29T22:48:31.543Z,59.41
2023-01-29T22:53:33.318Z,61.04
2023-01-29T22:58:35.167Z,62.85
2023-01-29T23:03:36.929Z,58.84
2023-01-29T23:08:38.794Z,62.61
2023-01-29T23:13:41.610Z,60.12
2023-01-29T23:18:44.229Z,60.55
2023-01-29T23:23:46.256Z,62.55
2023-01-29T23:28:48.081Z,58.46
2023-01-29T23:33:50.520Z,62.31
2023-01-29T23:38:52.285Z,60.31
2023-01-29T23:43:54.096Z,60.15
2023-01-29T23:48:56.142Z,62.82
2023-01-29T23:53:57.997Z,60.16
2023-01-29T23:58:59.910Z,59.60
